Terminal Aerodrome Forecast
Issued by NWS Upton, NY

Home | Current Version | Previous Version | Text Only | Print | Product List | Glossary On
Versions: 1 2 3 4 5 6 7 8 9 10 11 12 13 14 15 16 17 18 19 20 21 22 23 24 25 26
000
FTUS41 KOKX 041004 AAB
TAFBDR
TAF AMD
KBDR 041004Z 0410/0506 VRB05KT P6SM SCT050
      TEMPO 0410/0412 SHRA BKN050
     FM041200 23008KT P6SM SCT050 SCT100
     FM041600 22012G18KT P6SM SCT050
     FM050000 23008KT P6SM SCT050
     FM050300 25004KT P6SM SCT050 SCT100=

USA.gov is the U.S. government's official web portal to all federal, state and local government web resources and services.